Time;durP1;ratioP1;P1;durP2;ratioP2;P2;SDS_P1;SDS_P2;PMS_P1;PMS_P2;Temp;Humidity;BMP_temperature;BMP_pressure;BME280_temperature;BME280_humidity;BME280_pressure;Samples;Min_cycle;Max_cycle;Signal;HPM_P1;HPM_P2
2021/12/01 00:01:57;;;;;;;;;;;;;;;-1.91;81.08;96188.97;5050679;28;19978;-68
2021/12/01 00:04:24;;;;;;;;;;;;;;;-1.97;80.74;96180.22;5033946;28;19924;-68
2021/12/01 00:06:51;;;;;;;;;;;;;;;-1.98;80.85;96177.81;5032672;28;19924;-69
2021/12/01 00:09:17;;;;;;;;;;;;;;;-1.97;81.21;96190.28;5052227;28;19928;-69
2021/12/01 00:11:44;;;;;;;;;;;;;;;-1.95;80.97;96191.53;5050743;28;19979;-69
2021/12/01 00:14:11;;;;;;;;;;;;;;;-1.95;81.11;96198.94;5034601;28;20015;-69
2021/12/01 00:16:37;;;;;;;;;;;;;;;-1.96;80.81;96198.13;5050288;28;20411;-69
2021/12/01 00:19:04;;;;;;;;;;;;;;;-1.98;80.90;96197.66;5052377;28;19963;-68
2021/12/01 00:21:31;;;;;;;;;;;;;;;-1.99;80.79;96196.06;5050758;28;20437;-68
2021/12/01 00:23:58;;;;;;;;;;;;;;;-2.03;81.07;96192.44;5051923;28;19929;-68
2021/12/01 00:26:24;;;;;;;;;;;;;;;-2.03;81.20;96207.97;5051341;28;20010;-68
2021/12/01 00:28:51;;;;;;;;;;;;;;;-2.06;80.95;96214.88;5051456;28;19925;-68
2021/12/01 00:31:18;;;;;;;;;;;;;;;-2.10;81.01;96224.81;5051805;28;19924;-69
2021/12/01 00:33:45;;;;;;;;;;;;;;;-2.08;81.10;96221.78;5050591;28;19925;-68
2021/12/01 00:36:15;;;;;;;;;;;;;;;-2.05;81.23;96230.09;5051845;28;19931;-67
2021/12/01 00:38:42;;;;;;;;;;;;;;;-2.07;81.14;96223.38;5050511;28;19925;-68
2021/12/01 00:41:10;;;;;;;;;;;;;;;-2.09;81.13;96221.00;5051678;28;19939;-67
2021/12/01 00:43:39;;;;;;;;;;;;;;;-2.08;81.33;96219.84;5049969;28;19928;-68
2021/12/01 00:46:13;;;;;;;;;;;;;;;-2.08;81.08;96221.78;5051965;28;19925;-68
2021/12/01 00:48:41;;;;;;;;;;;;;;;-2.10;81.04;96230.28;5050146;28;19951;-68
2021/12/01 00:51:08;;;;;;;;;;;;;;;-2.10;81.37;96215.88;5051863;28;19978;-68
2021/12/01 00:53:34;;;;;;;;;;;;;;;-2.10;81.24;96224.81;5049666;28;19954;-67
2021/12/01 00:56:02;;;;;;;;;;;;;;;-2.11;80.89;96222.44;5051209;28;20011;-68
2021/12/01 00:58:29;;;;;;;;;;;;;;;-2.13;81.02;96220.03;5049579;28;20012;-68
2021/12/01 01:00:55;;;;;;;;;;;;;;;-2.13;80.82;96220.03;5051159;28;19967;-68
2021/12/01 01:03:22;;;;;;;;;;;;;;;-2.11;81.18;96227.88;5049671;28;20407;-68
2021/12/01 01:05:50;;;;;;;;;;;;;;;-2.13;81.07;96214.59;5050955;28;19924;-68
2021/12/01 01:08:17;;;;;;;;;;;;;;;-2.14;81.11;96232.06;5050125;28;19975;-68
2021/12/01 01:18:45;;;;;;;;;;;;;;;-2.08;81.37;96236.19;5050155;28;19960;-68
2021/12/01 01:21:13;;;;;;;;;;;;;;;-2.10;81.48;96243.88;5051188;28;19975;-68
2021/12/01 01:23:40;;;;;;;;;;;;;;;-2.05;81.38;96234.72;5049774;28;20035;-69
2021/12/01 01:26:08;;;;;;;;;;;;;;;-2.02;81.50;96236.78;5051386;28;19929;-62
2021/12/01 01:28:36;;;;;;;;;;;;;;;-2.00;81.31;96235.34;5031717;28;20448;-63
2021/12/01 01:31:02;;;;;;;;;;;;;;;-1.99;81.40;96239.66;5050908;28;20370;-62
2021/12/01 01:33:29;;;;;;;;;;;;;;;-2.01;81.44;96227.50;5049380;28;19936;-62
2021/12/01 01:35:56;;;;;;;;;;;;;;;-2.07;80.95;96237.00;5051274;28;19979;-62
2021/12/01 01:38:23;;;;;;;;;;;;;;;-2.08;81.04;96236.19;5049210;28;19951;-62
2021/12/01 01:40:50;;;;;;;;;;;;;;;-2.09;81.39;96237.34;5050636;28;19936;-62
2021/12/01 01:43:17;;;;;;;;;;;;;;;-2.12;81.69;96242.63;5050106;28;20443;-67
2021/12/01 01:45:44;;;;;;;;;;;;;;;-2.10;81.34;96238.44;5050385;28;20403;-68
2021/12/01 01:48:13;;;;;;;;;;;;;;;-2.10;81.47;96249.34;5050457;28;20309;-69
2021/12/01 01:50:41;;;;;;;;;;;;;;;-2.14;81.18;96237.53;5049684;28;19925;-68
2021/12/01 01:53:12;;;;;;;;;;;;;;;-2.13;81.57;96247.28;5050564;28;19932;-68
2021/12/01 01:55:41;;;;;;;;;;;;;;;-2.11;81.40;96242.31;5051451;28;20027;-67
2021/12/01 01:58:08;;;;;;;;;;;;;;;-2.09;81.47;96242.78;5050599;28;20316;-68
2021/12/01 02:00:44;;;;;;;;;;;;;;;-2.08;81.57;96247.09;5049069;28;20307;-68
2021/12/01 02:03:12;;;;;;;;;;;;;;;-2.06;81.52;96242.13;5050498;28;20295;-68
2021/12/01 02:05:40;;;;;;;;;;;;;;;-2.07;81.10;96256.84;5050668;28;20027;-68
2021/12/01 02:08:15;;;;;;;;;;;;;;;-2.10;81.00;96251.28;5050448;28;20079;-69
2021/12/01 02:10:43;;;;;;;;;;;;;;;-2.08;81.29;96254.44;5053301;28;19925;-68
2021/12/01 02:13:09;;;;;;;;;;;;;;;-2.05;81.33;96259.22;5054182;28;19924;-68
2021/12/01 02:15:36;;;;;;;;;;;;;;;-2.05;81.38;96259.22;5052725;28;19946;-68
2021/12/01 02:18:03;;;;;;;;;;;;;;;-2.03;81.20;96259.69;5046501;28;19931;-68
2021/12/01 02:20:30;;;;;;;;;;;;;;;-2.02;80.94;96275.72;5035073;28;20031;-68
2021/12/01 02:22:58;;;;;;;;;;;;;;;-2.04;81.11;96272.50;5053874;28;20016;-68
2021/12/01 02:25:25;;;;;;;;;;;;;;;-2.05;81.75;96268.19;5052778;28;20055;-68
2021/12/01 02:27:52;;;;;;;;;;;;;;;-2.10;81.05;96257.50;5053701;28;20311;-68
2021/12/01 02:30:19;;;;;;;;;;;;;;;-2.07;80.94;96267.72;5052459;28;20595;-68
2021/12/01 02:32:45;;;;;;;;;;;;;;;-2.06;81.30;96257.66;5054075;28;20403;-59
2021/12/01 02:35:12;;;;;;;;;;;;;;;-2.05;81.39;96270.13;5052441;28;20418;-61
2021/12/01 02:37:40;;;;;;;;;;;;;;;-2.07;80.69;96284.06;5053585;28;19924;-57
2021/12/01 02:40:07;;;;;;;;;;;;;;;-2.07;81.17;96286.78;5054385;28;19925;-59
2021/12/01 02:42:34;;;;;;;;;;;;;;;-2.09;81.12;96270.00;5053111;28;20023;-58
2021/12/01 02:45:00;;;;;;;;;;;;;;;-2.09;81.62;96283.63;5053610;28;19962;-58
2021/12/01 02:47:29;;;;;;;;;;;;;;;-2.09;81.08;96280.91;5052141;28;19932;-58
2021/12/01 02:49:56;;;;;;;;;;;;;;;-2.09;81.27;96270.00;5053487;28;19924;-58
2021/12/01 02:52:22;;;;;;;;;;;;;;;-2.09;81.04;96278.16;5052206;28;20027;-58
2021/12/01 02:54:49;;;;;;;;;;;;;;;-2.10;80.79;96279.28;5046003;28;20304;-58
2021/12/01 02:57:16;;;;;;;;;;;;;;;-2.08;81.06;96285.19;5052497;28;20020;-58
2021/12/01 02:59:43;;;;;;;;;;;;;;;-2.08;81.14;96287.94;5053189;28;20019;-56
2021/12/01 03:02:10;;;;;;;;;;;;;;;-2.07;81.18;96289.50;5052237;28;19924;-58
2021/12/01 03:04:37;;;;;;;;;;;;;;;-2.08;81.04;96281.66;5052941;28;19924;-53
2021/12/01 03:07:05;;;;;;;;;;;;;;;-2.08;80.89;96290.66;5051679;28;20031;-54
2021/12/01 03:09:32;;;;;;;;;;;;;;;-2.07;81.06;96281.34;5053448;28;20395;-58
2021/12/01 03:11:59;;;;;;;;;;;;;;;-2.09;80.89;96286.34;5034295;28;19925;-58
2021/12/01 03:14:25;;;;;;;;;;;;;;;-2.11;81.25;96287.78;5053234;28;20392;-58
2021/12/01 03:16:53;;;;;;;;;;;;;;;-2.11;80.84;96309.56;5052317;28;19959;-57
2021/12/01 03:19:20;;;;;;;;;;;;;;;-2.09;80.91;96294.50;5052613;28;19924;-56
2021/12/01 03:21:46;;;;;;;;;;;;;;;-2.07;80.99;96294.19;5052213;28;19924;-59
2021/12/01 03:24:13;;;;;;;;;;;;;;;-2.08;81.19;96298.81;5051993;28;19925;-58
2021/12/01 03:26:40;;;;;;;;;;;;;;;-2.09;80.91;96291.78;5052846;28;19925;-58
2021/12/01 03:29:07;;;;;;;;;;;;;;;-2.09;80.86;96291.78;5051997;28;20357;-58
2021/12/01 03:31:34;;;;;;;;;;;;;;;-2.08;80.78;96304.25;5053071;28;19951;-58
2021/12/01 03:34:02;;;;;;;;;;;;;;;-2.10;80.73;96292.13;5051316;28;19925;-56
2021/12/01 03:36:29;;;;;;;;;;;;;;;-2.11;80.89;96298.66;5053166;28;20370;-57
2021/12/01 03:38:55;;;;;;;;;;;;;;;-2.11;80.84;96296.75;5051640;28;20036;-58
2021/12/01 03:41:23;;;;;;;;;;;;;;;-2.12;80.81;96292.44;5053101;28;19925;-58
2021/12/01 03:43:49;;;;;;;;;;;;;;;-2.12;80.80;96292.44;5051176;28;20277;-58
2021/12/01 03:46:16;;;;;;;;;;;;;;;-2.11;80.78;96293.22;5052990;28;19979;-58
2021/12/01 03:48:43;;;;;;;;;;;;;;;-2.13;80.77;96290.84;5052433;28;19925;-58
2021/12/01 03:51:10;;;;;;;;;;;;;;;-2.14;80.70;96289.25;5052889;28;19935;-57
2021/12/01 03:53:36;;;;;;;;;;;;;;;-2.15;80.41;96293.09;5052935;28;20031;-57
2021/12/01 03:56:03;;;;;;;;;;;;;;;-2.15;80.74;96298.56;5051469;28;20265;-57
2021/12/01 03:58:30;;;;;;;;;;;;;;;-2.15;80.73;96298.56;5052469;28;20011;-59
2021/12/01 04:00:57;;;;;;;;;;;;;;;-2.17;80.85;96300.78;5051341;28;20354;-57
2021/12/01 04:03:24;;;;;;;;;;;;;;;-2.22;80.68;96298.25;5052386;28;19929;-58
2021/12/01 04:05:50;;;;;;;;;;;;;;;-2.25;80.75;96296.19;5050474;28;20047;-58
2021/12/01 04:08:17;;;;;;;;;;;;;;;-2.25;80.71;96298.91;5051843;28;19925;-55
2021/12/01 04:10:44;;;;;;;;;;;;;;;-2.28;80.48;96305.03;5051172;28;20451;-59
2021/12/01 04:13:11;;;;;;;;;;;;;;;-2.27;80.93;96305.81;5052115;28;19928;-57
2021/12/01 04:15:38;;;;;;;;;;;;;;;-2.26;80.59;96310.13;5050468;28;20039;-53
2021/12/01 04:18:05;;;;;;;;;;;;;;;-2.26;80.56;96308.22;5052246;28;19924;-58
2021/12/01 04:20:32;;;;;;;;;;;;;;;-2.30;80.46;96304.56;5051113;28;20023;-58
2021/12/01 04:22:59;;;;;;;;;;;;;;;-2.30;80.42;96318.19;5051484;28;20315;-58
2021/12/01 04:25:26;;;;;;;;;;;;;;;-2.28;80.55;96312.41;5051459;28;20307;-57
2021/12/01 04:27:53;;;;;;;;;;;;;;;-2.31;80.34;96302.97;5052244;28;20019;-57
2021/12/01 04:30:22;;;;;;;;;;;;;;;-2.32;80.34;96317.69;5052493;28;19925;-59
2021/12/01 04:32:50;;;;;;;;;;;;;;;-2.35;80.44;96315.63;5049503;28;19929;-57
2021/12/01 04:35:18;;;;;;;;;;;;;;;-2.33;80.72;96318.03;5051803;28;20455;-57
2021/12/01 04:37:45;;;;;;;;;;;;;;;-2.32;80.24;96320.44;5050482;28;19925;-59
2021/12/01 04:40:12;;;;;;;;;;;;;;;-2.30;80.66;96331.78;5043726;28;20030;-60
2021/12/01 04:42:39;;;;;;;;;;;;;;;-2.29;80.31;96329.84;5049963;28;19955;-55
2021/12/01 04:45:13;;;;;;;;;;;;;;;-2.28;80.20;96326.03;5051625;28;19924;-57
2021/12/01 04:47:44;;;;;;;;;;;;;;;-2.24;80.44;96327.75;5032049;28;19968;-59
2021/12/01 04:50:12;;;;;;;;;;;;;;;-2.22;80.50;96325.47;5051509;28;20019;-59
2021/12/01 04:52:39;;;;;;;;;;;;;;;-2.23;80.50;96326.63;5051668;28;20400;-57
2021/12/01 04:55:06;;;;;;;;;;;;;;;-2.23;80.35;96323.91;5051744;28;19924;-59
2021/12/01 04:57:34;;;;;;;;;;;;;;;-2.26;80.28;96330.00;5050058;28;19948;-58
2021/12/01 05:00:00;;;;;;;;;;;;;;;-2.27;80.27;96339.31;5051361;28;20037;-59
2021/12/01 05:02:28;;;;;;;;;;;;;;;-2.29;80.29;96340.72;5049709;28;19976;-58
2021/12/01 05:04:55;;;;;;;;;;;;;;;-2.31;80.25;96346.50;5033345;28;19924;-59
2021/12/01 05:07:23;;;;;;;;;;;;;;;-2.34;80.24;96355.31;5049958;28;19931;-56
2021/12/01 05:09:50;;;;;;;;;;;;;;;-2.36;80.06;96345.91;5047603;28;19951;-57
2021/12/01 05:12:16;;;;;;;;;;;;;;;-2.39;80.14;96350.09;5032504;28;20026;-58
2021/12/01 05:14:43;;;;;;;;;;;;;;;-2.37;80.30;96352.47;5050740;28;20372;-60
2021/12/01 05:17:10;;;;;;;;;;;;;;;-2.34;80.54;96366.22;5051780;28;20281;-58
2021/12/01 05:19:36;;;;;;;;;;;;;;;-2.38;79.76;96364.47;5032379;28;20027;-58
2021/12/01 05:22:04;;;;;;;;;;;;;;;-2.43;79.95;96367.41;5050912;28;19931;-58
2021/12/01 05:24:30;;;;;;;;;;;;;;;-2.45;79.96;96367.72;5031884;28;19925;-57
2021/12/01 05:26:57;;;;;;;;;;;;;;;-2.43;79.95;96379.06;5050998;28;20051;-56
2021/12/01 05:29:24;;;;;;;;;;;;;;;-2.39;80.27;96373.78;5049325;28;19925;-59
2021/12/01 05:31:52;;;;;;;;;;;;;;;-2.34;80.11;96379.81;5051052;28;19925;-59
2021/12/01 05:34:19;;;;;;;;;;;;;;;-2.32;80.14;96384.94;5049797;28;19971;-60
2021/12/01 05:36:46;;;;;;;;;;;;;;;-2.32;79.81;96390.38;5051284;28;19982;-60
2021/12/01 05:39:13;;;;;;;;;;;;;;;-2.34;79.90;96385.25;5049785;28;19924;-59
2021/12/01 05:41:40;;;;;;;;;;;;;;;-2.35;80.42;96399.19;5050957;28;19952;-62
2021/12/01 05:44:07;;;;;;;;;;;;;;;-2.39;79.71;96396.34;5051252;28;19931;-62
2021/12/01 05:46:34;;;;;;;;;;;;;;;-2.42;79.90;96397.00;5055063;28;20015;-62
2021/12/01 05:49:01;;;;;;;;;;;;;;;-2.43;79.92;96387.22;5054923;28;20277;-62
2021/12/01 05:51:28;;;;;;;;;;;;;;;-2.44;79.96;96398.44;5055145;28;19925;-62
2021/12/01 05:53:55;;;;;;;;;;;;;;;-2.43;79.99;96400.06;5036706;28;20027;-62
2021/12/01 05:56:21;;;;;;;;;;;;;;;-2.44;80.12;96399.25;5053499;28;19943;-62
2021/12/01 05:58:48;;;;;;;;;;;;;;;-2.41;80.33;96406.75;5054480;28;19924;-62
2021/12/01 06:01:15;;;;;;;;;;;;;;;-2.39;80.20;96407.25;5052968;28;20023;-63
2021/12/01 06:03:43;;;;;;;;;;;;;;;-2.37;80.00;96404.97;5054275;28;19924;-62
2021/12/01 06:06:10;;;;;;;;;;;;;;;-2.36;80.10;96412.03;5052763;28;19928;-62
2021/12/01 06:08:37;;;;;;;;;;;;;;;-2.41;79.65;96409.47;5051096;28;19935;-64
2021/12/01 06:11:03;;;;;;;;;;;;;;;-2.43;79.89;96411.72;5053608;28;19978;-64
2021/12/01 06:13:30;;;;;;;;;;;;;;;-2.41;80.31;96420.38;5053644;28;19924;-63
2021/12/01 06:15:57;;;;;;;;;;;;;;;-2.40;80.05;96421.94;5052854;28;19955;-64
2021/12/01 06:18:24;;;;;;;;;;;;;;;-2.40;79.82;96421.16;5053487;28;19925;-64
2021/12/01 06:20:51;;;;;;;;;;;;;;;-2.38;80.12;96418.91;5053506;28;20383;-63
2021/12/01 06:23:18;;;;;;;;;;;;;;;-2.42;79.80;96420.69;5052821;28;19931;-63
2021/12/01 06:25:46;;;;;;;;;;;;;;;-2.40;79.75;96443.72;5053558;28;19935;-64
2021/12/01 06:28:12;;;;;;;;;;;;;;;-2.35;80.32;96440.84;5054235;28;19924;-64
2021/12/01 06:30:39;;;;;;;;;;;;;;;-2.35;80.05;96435.38;5053986;28;19968;-63
2021/12/01 06:33:06;;;;;;;;;;;;;;;-2.33;79.59;96433.16;5052086;28;19968;-64
2021/12/01 06:35:34;;;;;;;;;;;;;;;-2.36;79.88;96435.72;5052869;28;19925;-64
2021/12/01 06:38:01;;;;;;;;;;;;;;;-2.37;79.54;96440.34;5051497;28;19928;-64
2021/12/01 06:40:28;;;;;;;;;;;;;;;-2.35;80.13;96461.78;5052358;28;19924;-63
2021/12/01 06:42:56;;;;;;;;;;;;;;;-2.32;79.94;96450.25;5052609;28;19931;-67
2021/12/01 06:45:25;;;;;;;;;;;;;;;-2.30;79.61;96443.38;5020041;28;20450;-69
2021/12/01 06:47:52;;;;;;;;;;;;;;;-2.35;79.62;96449.00;5052739;28;19947;-61
2021/12/01 06:50:19;;;;;;;;;;;;;;;-2.40;79.63;96453.81;5053137;28;19928;-60
2021/12/01 06:52:45;;;;;;;;;;;;;;;-2.36;79.55;96460.22;5050499;28;19928;-60
2021/12/01 06:55:12;;;;;;;;;;;;;;;-2.38;79.70;96463.25;5051683;28;19929;-60
2021/12/01 06:57:39;;;;;;;;;;;;;;;-2.44;79.43;96461.84;5052856;28;20040;-60
2021/12/01 07:00:07;;;;;;;;;;;;;;;-2.45;79.66;96470.31;5052940;28;19924;-61
2021/12/01 07:02:34;;;;;;;;;;;;;;;-2.38;79.68;96485.03;5052110;28;19925;-61
2021/12/01 07:05:01;;;;;;;;;;;;;;;-2.33;79.60;96475.88;5051390;28;19932;-58
2021/12/01 07:07:28;;;;;;;;;;;;;;;-2.33;79.66;96478.59;5051939;28;19925;-59
2021/12/01 07:09:55;;;;;;;;;;;;;;;-2.32;79.87;96488.38;5050882;28;19935;-60
2021/12/01 07:12:23;;;;;;;;;;;;;;;-2.33;79.58;96481.34;5034915;28;19929;-59
2021/12/01 07:14:50;;;;;;;;;;;;;;;-2.33;79.70;96482.13;5052425;28;19925;-63
2021/12/01 07:17:17;;;;;;;;;;;;;;;-2.32;79.55;96489.16;5053467;28;20347;-61
2021/12/01 07:19:43;;;;;;;;;;;;;;;-2.29;79.57;96493.97;5051539;28;20376;-60
2021/12/01 07:22:10;;;;;;;;;;;;;;;-2.30;79.52;96492.38;5052663;28;19978;-58
2021/12/01 07:24:37;;;;;;;;;;;;;;;-2.33;79.51;96495.75;5052802;28;19928;-59
2021/12/01 07:27:04;;;;;;;;;;;;;;;-2.34;79.65;96496.06;5052440;28;20007;-61
2021/12/01 07:29:31;;;;;;;;;;;;;;;-2.33;79.90;96503.91;5051336;28;19928;-60
2021/12/01 07:31:58;;;;;;;;;;;;;;;-2.34;79.56;96512.41;5052269;28;20392;-61
2021/12/01 07:34:25;;;;;;;;;;;;;;;-2.39;79.61;96507.94;5052994;28;20443;-63
2021/12/01 07:36:51;;;;;;;;;;;;;;;-2.35;79.74;96511.59;5052412;28;19924;-60
2021/12/01 07:39:20;;;;;;;;;;;;;;;-2.30;79.67;96516.06;5053110;28;19928;-60
2021/12/01 07:41:47;;;;;;;;;;;;;;;-2.27;79.52;96520.88;5051389;28;19930;-59
2021/12/01 07:44:14;;;;;;;;;;;;;;;-2.27;79.49;96521.66;5052766;28;20027;-60
2021/12/01 07:46:42;;;;;;;;;;;;;;;-2.28;79.54;96522.00;5049919;28;19960;-60
2021/12/01 07:49:09;;;;;;;;;;;;;;;-2.28;79.34;96514.59;5034888;28;19924;-59
2021/12/01 07:51:36;;;;;;;;;;;;;;;-2.23;79.42;96530.78;5049337;28;19924;-60
2021/12/01 07:54:02;;;;;;;;;;;;;;;-2.18;79.22;96532.53;5050904;28;19978;-58
2021/12/01 07:56:29;;;;;;;;;;;;;;;-2.18;79.33;96533.34;5050300;28;19932;-60
2021/12/01 07:58:56;;;;;;;;;;;;;;;-2.15;79.40;96538.13;5052580;28;20422;-62
2021/12/01 08:01:23;;;;;;;;;;;;;;;-2.13;79.30;96541.31;5050679;28;20304;-59
2021/12/01 08:03:50;;;;;;;;;;;;;;;-2.11;79.68;96539.06;5052291;28;19929;-60
2021/12/01 08:06:16;;;;;;;;;;;;;;;-2.06;79.21;96541.63;5032204;28;19925;-61
2021/12/01 08:08:43;;;;;;;;;;;;;;;-2.03;79.41;96535.53;5029564;28;20015;-60
2021/12/01 08:11:10;;;;;;;;;;;;;;;-2.05;79.36;96537.78;5051319;28;19933;-58
2021/12/01 08:13:37;;;;;;;;;;;;;;;-2.06;79.30;96538.91;5051400;28;20388;-59
2021/12/01 08:16:09;;;;;;;;;;;;;;;-2.06;79.42;96547.09;5028780;28;19925;-61
2021/12/01 08:18:36;;;;;;;;;;;;;;;-2.03;79.42;96545.63;5050148;28;19925;-59
2021/12/01 08:21:03;;;;;;;;;;;;;;;-2.01;79.58;96555.06;5051335;28;19978;-59
2021/12/01 08:23:29;;;;;;;;;;;;;;;-2.03;79.33;96557.31;5050231;28;19959;-60
2021/12/01 08:25:56;;;;;;;;;;;;;;;-2.02;79.41;96561.63;5051305;28;20388;-59
2021/12/01 08:28:23;;;;;;;;;;;;;;;-2.01;79.44;96560.50;5050922;28;19971;-56
2021/12/01 08:30:49;;;;;;;;;;;;;;;-1.97;79.32;96561.47;5051504;28;20295;-59
2021/12/01 08:33:16;;;;;;;;;;;;;;;-1.92;79.39;96558.56;5049610;28;19925;-61
2021/12/01 08:35:44;;;;;;;;;;;;;;;-1.91;79.32;96560.16;5049853;28;19951;-61
2021/12/01 08:38:11;;;;;;;;;;;;;;;-1.91;79.31;96562.88;5049568;28;19929;-60
2021/12/01 08:40:38;;;;;;;;;;;;;;;-1.89;79.19;96562.56;5049696;28;19978;-59
2021/12/01 08:43:04;;;;;;;;;;;;;;;-1.90;79.60;96560.94;5048955;28;19947;-60
2021/12/01 08:45:32;;;;;;;;;;;;;;;-1.90;79.41;96569.94;5050343;28;20031;-60
2021/12/01 08:47:59;;;;;;;;;;;;;;;-1.88;79.46;96561.44;5050197;28;19964;-61
2021/12/01 08:50:26;;;;;;;;;;;;;;;-1.91;79.17;96565.63;5051021;28;19925;-61
2021/12/01 08:52:53;;;;;;;;;;;;;;;-1.91;79.30;96568.34;5051400;28;19925;-59
2021/12/01 08:55:22;;;;;;;;;;;;;;;-1.92;79.29;96561.28;5051961;28;19925;-60
2021/12/01 08:58:05;;;;;;;;;;;;;;;-1.90;79.66;96563.66;5049792;28;19925;-59
2021/12/01 09:00:38;;;;;;;;;;;;;;;-1.88;79.57;96575.88;5051039;28;20402;-58
2021/12/01 09:03:05;;;;;;;;;;;;;;;-1.84;79.33;96570.53;5049837;28;20525;-62
2021/12/01 09:05:32;;;;;;;;;;;;;;;-1.83;79.48;96580.34;5047219;28;20573;-62
2021/12/01 09:07:59;;;;;;;;;;;;;;;-1.78;79.47;96576.63;5050564;28;20423;-59
2021/12/01 09:10:25;;;;;;;;;;;;;;;-1.77;79.27;96575.50;5050319;28;19931;-60
2021/12/01 09:12:52;;;;;;;;;;;;;;;-1.84;79.05;96575.22;5050940;28;19924;-58
2021/12/01 09:15:19;;;;;;;;;;;;;;;-1.84;79.27;96580.66;5049523;28;20019;-60
2021/12/01 09:17:46;;;;;;;;;;;;;;;-1.83;78.99;96578.38;5051313;28;20031;-59
2021/12/01 09:20:13;;;;;;;;;;;;;;;-1.86;78.99;96583.72;5050923;28;19924;-60
2021/12/01 09:22:40;;;;;;;;;;;;;;;-1.85;79.21;96585.28;5051276;28;20439;-67
2021/12/01 09:25:07;;;;;;;;;;;;;;;-1.83;79.29;96586.56;5032064;28;20386;-67
2021/12/01 09:27:34;;;;;;;;;;;;;;;-1.82;79.15;96587.38;5051458;28;19963;-67
2021/12/01 09:30:01;;;;;;;;;;;;;;;-1.78;79.00;96584.81;5051216;28;19928;-67
2021/12/01 09:32:28;;;;;;;;;;;;;;;-1.81;79.25;96590.91;5050529;28;20023;-68
2021/12/01 09:34:55;;;;;;;;;;;;;;;-1.83;79.22;96590.41;5049063;28;19925;-68
2021/12/01 09:37:22;;;;;;;;;;;;;;;-1.83;79.24;96594.72;5050535;28;19931;-67
2021/12/01 09:39:49;;;;;;;;;;;;;;;-1.81;79.25;96599.06;5050876;28;19931;-68
2021/12/01 09:42:15;;;;;;;;;;;;;;;-1.83;79.02;96600.19;5050446;28;19925;-66
2021/12/01 09:44:42;;;;;;;;;;;;;;;-1.84;79.15;96600.50;5051271;28;19928;-67
2021/12/01 09:47:09;;;;;;;;;;;;;;;-1.92;78.72;96602.13;5050087;28;19978;-68
2021/12/01 09:49:36;;;;;;;;;;;;;;;-1.98;78.79;96603.41;5050278;28;20019;-66
2021/12/01 09:52:03;;;;;;;;;;;;;;;-1.98;79.04;96606.16;5049267;28;20326;-68
2021/12/01 09:54:30;;;;;;;;;;;;;;;-1.95;79.21;96608.22;5041920;28;19931;-67
2021/12/01 09:56:57;;;;;;;;;;;;;;;-1.94;79.43;96609.84;5049407;28;19925;-69
2021/12/01 09:59:24;;;;;;;;;;;;;;;-1.91;79.35;96614.66;5050919;28;20027;-67
2021/12/01 10:01:50;;;;;;;;;;;;;;;-1.88;79.34;96616.72;5050735;28;20391;-68
2021/12/01 10:04:17;;;;;;;;;;;;;;;-1.88;79.32;96619.44;5049792;28;19925;-67
2021/12/01 10:06:44;;;;;;;;;;;;;;;-1.87;79.55;96626.47;5048559;28;19924;-68
2021/12/01 10:09:13;;;;;;;;;;;;;;;-1.87;79.49;96626.47;5050286;28;20307;-68
2021/12/01 10:11:41;;;;;;;;;;;;;;;-1.87;79.56;96623.75;5049828;28;20398;-68
2021/12/01 10:14:20;;;;;;;;;;;;;;;-1.86;79.19;96624.56;5047284;28;20379;-67
2021/12/01 10:16:51;;;;;;;;;;;;;;;-1.89;79.22;96626.00;5031217;28;20388;-67
2021/12/01 10:19:18;;;;;;;;;;;;;;;-1.96;78.94;96622.97;5051438;28;20303;-67
2021/12/01 10:21:47;;;;;;;;;;;;;;;-2.01;78.96;96620.41;5048538;28;20086;-67
2021/12/01 10:24:20;;;;;;;;;;;;;;;-2.04;79.09;96610.16;5047046;28;21142;-68
2021/12/01 10:26:51;;;;;;;;;;;;;;;-2.08;79.21;96622.03;5049090;28;19925;-68
2021/12/01 10:29:23;;;;;;;;;;;;;;;-2.07;79.17;96627.16;5049662;28;20400;-67
2021/12/01 10:31:52;;;;;;;;;;;;;;;-2.05;79.08;96619.47;5051777;28;20000;-66
2021/12/01 10:34:19;;;;;;;;;;;;;;;-2.01;79.06;96628.59;5053157;28;19931;-67
2021/12/01 10:36:47;;;;;;;;;;;;;;;-1.98;79.23;96636.09;5052688;28;19946;-67
2021/12/01 10:39:15;;;;;;;;;;;;;;;-1.93;78.89;96638.66;5054297;28;19980;-66
2021/12/01 10:41:43;;;;;;;;;;;;;;;-1.95;79.04;96632.72;5052165;28;19929;-68
2021/12/01 10:44:11;;;;;;;;;;;;;;;-2.04;78.64;96637.41;5052624;28;20436;-70
2021/12/01 10:46:44;;;;;;;;;;;;;;;-2.08;78.93;96638.38;5052867;28;20012;-69
2021/12/01 10:49:11;;;;;;;;;;;;;;;-2.09;78.75;96634.88;5054121;28;20435;-71
2021/12/01 10:51:40;;;;;;;;;;;;;;;-2.10;77.70;96627.00;5052947;28;20342;-70
2021/12/01 10:54:16;;;;;;;;;;;;;;;-2.18;77.86;96636.78;5053519;28;19931;-70
2021/12/01 10:56:43;;;;;;;;;;;;;;;-2.19;77.97;96640.63;5053438;28;19947;-71
2021/12/01 10:59:15;;;;;;;;;;;;;;;-2.14;78.05;96654.06;5053403;28;19932;-70
2021/12/01 11:01:43;;;;;;;;;;;;;;;-2.19;77.72;96646.06;5053439;28;19967;-69
2021/12/01 11:04:10;;;;;;;;;;;;;;;-2.25;78.20;96652.00;5051970;28;19933;-66
2021/12/01 11:06:38;;;;;;;;;;;;;;;-2.28;78.42;96644.50;5052942;28;20384;-67
2021/12/01 11:09:07;;;;;;;;;;;;;;;-2.24;78.62;96653.59;5032963;28;20019;-66
2021/12/01 11:11:38;;;;;;;;;;;;;;;-2.21;78.42;96653.78;5053083;28;20020;-70
2021/12/01 11:14:26;;;;;;;;;;;;;;;-2.31;78.29;96654.06;5049832;28;19968;-69
2021/12/01 11:16:53;;;;;;;;;;;;;;;-2.38;78.46;96653.75;5052354;28;19924;-66
2021/12/01 11:19:31;;;;;;;;;;;;;;;-2.44;77.90;96662.41;5052390;28;19925;-66
2021/12/01 11:22:18;;;;;;;;;;;;;;;-2.49;78.34;96663.34;5051779;28;20395;-66
2021/12/01 11:24:45;;;;;;;;;;;;;;;-2.47;78.32;96660.31;5053378;28;20299;-67
2021/12/01 11:27:12;;;;;;;;;;;;;;;-2.48;78.20;96669.59;5051530;28;19935;-66
2021/12/01 11:29:46;;;;;;;;;;;;;;;-2.43;77.63;96659.34;5053014;28;20365;-67
2021/12/01 11:32:14;;;;;;;;;;;;;;;-2.50;77.53;96667.22;5052487;28;19925;-66
2021/12/01 11:34:42;;;;;;;;;;;;;;;-2.58;77.79;96661.75;5052583;28;19924;-66
2021/12/01 11:37:09;;;;;;;;;;;;;;;-2.60;77.89;96662.06;5052296;28;19935;-66
2021/12/01 11:39:37;;;;;;;;;;;;;;;-2.64;77.59;96677.44;5050469;28;19924;-67
2021/12/01 11:42:22;;;;;;;;;;;;;;;-2.67;77.36;96669.91;5049241;28;20074;-67
2021/12/01 11:44:51;;;;;;;;;;;;;;;-2.71;77.40;96677.09;5053314;28;20020;-67
2021/12/01 11:47:18;;;;;;;;;;;;;;;-2.68;77.38;96683.81;5051408;28;20395;-68
2021/12/01 11:49:50;;;;;;;;;;;;;;;-2.65;77.87;96685.91;5051902;28;20304;-66
2021/12/01 11:52:21;;;;;;;;;;;;;;;-2.66;77.17;96684.31;5050708;28;19955;-63
2021/12/01 11:54:48;;;;;;;;;;;;;;;-2.63;77.15;96692.63;5051190;28;20384;-63
2021/12/01 11:57:16;;;;;;;;;;;;;;;-2.65;76.79;96692.16;5051984;28;19933;-66
2021/12/01 11:59:47;;;;;;;;;;;;;;;-2.66;77.30;96697.91;5051812;28;19925;-63
2021/12/01 12:02:21;;;;;;;;;;;;;;;-2.67;77.94;96705.25;5032376;28;20284;-61
2021/12/01 12:04:52;;;;;;;;;;;;;;;-2.65;77.98;96708.47;5031047;28;19932;-58
2021/12/01 12:07:22;;;;;;;;;;;;;;;-2.61;77.54;96714.88;5032606;28;19924;-63
2021/12/01 12:10:17;;;;;;;;;;;;;;;-2.59;78.20;96717.28;5050538;28;20376;-64
2021/12/01 12:12:44;;;;;;;;;;;;;;;-2.65;77.31;96708.47;5046494;28;19925;-61
2021/12/01 12:15:35;;;;;;;;;;;;;;;-2.76;76.26;96717.25;5051760;28;20300;-62
2021/12/01 12:18:03;;;;;;;;;;;;;;;-2.86;77.28;96723.78;5048420;28;20350;-60
2021/12/01 12:20:39;;;;;;;;;;;;;;;-2.84;77.75;96716.09;5050152;28;19935;-61
2021/12/01 12:23:09;;;;;;;;;;;;;;;-2.81;76.57;96726.34;5051237;28;19947;-59
2021/12/01 12:25:39;;;;;;;;;;;;;;;-2.84;76.93;96729.69;5050913;28;19925;-58
2021/12/01 12:28:35;;;;;;;;;;;;;;;-2.81;76.89;96739.94;5051493;28;19932;-59
2021/12/01 12:31:04;;;;;;;;;;;;;;;-2.82;77.25;96743.78;5050484;28;19924;-60
2021/12/01 12:37:24;;;;;;;;;;;;;;;-2.82;77.49;96742.97;4982861;28;19976;-62
2021/12/01 12:39:53;;;;;;;;;;;;;;;-2.80;77.29;96749.72;4990426;28;20019;-63
2021/12/01 12:42:22;;;;;;;;;;;;;;;-2.81;77.05;96747.31;4994471;28;19952;-63
2021/12/01 12:44:54;;;;;;;;;;;;;;;-2.82;77.09;96745.69;4990820;28;19925;-60
2021/12/01 12:47:36;;;;;;;;;;;;;;;-2.85;77.32;96766.19;4990070;28;20397;-61
2021/12/01 12:50:11;;;;;;;;;;;;;;;-2.89;77.45;96765.22;4999563;28;19926;-64
2021/12/01 12:52:42;;;;;;;;;;;;;;;-2.94;77.45;96765.34;4989794;28;19926;-59
2021/12/01 12:55:15;;;;;;;;;;;;;;;-3.03;76.43;96767.22;4990804;28;19967;-60
2021/12/01 12:57:51;;;;;;;;;;;;;;;-2.97;77.12;96762.44;4990316;28;20460;-63
2021/12/01 13:00:34;;;;;;;;;;;;;;;-2.92;77.25;96768.56;4991442;28;20004;-62
2021/12/01 13:03:22;;;;;;;;;;;;;;;-2.90;76.99;96771.75;4987351;28;19929;-65
2021/12/01 13:05:53;;;;;;;;;;;;;;;-2.88;77.24;96774.97;4990271;28;19957;-61